Wes Sonja — V2GN5 — position and weather

sailwx.info

Track history (hours):
 
Tides and Currents Weather Stations Pressure Air Temp Water Temp Dewpoint Dewpoint Depression Visibility Wind Speed Wind Dir Waves Ship Positions

Wes Sonja

Last reported at 2018-Jun-18 08:58 UTC. Time now 2018-Jun-18 09:50 UTC.
Position N 52°02' E 001°09'.

Length 109 m; draft 7.3 m.

Type: Cargo ship. MMSI: 304013000.

Date/timePositionNaut miles runAvg speedWind from/ knotsBaromVisibWave heightAir tempDewpointWater temp
2018-Jun-18 08:58N 52°02' E 001°09'0 0.0
2018-Jun-18 08:28N 52°02' E 001°09'0 0.0
2018-Jun-18 07:58N 52°02' E 001°09'0 0.0
2018-Jun-18 07:28N 52°02' E 001°09'0 0.0
2018-Jun-18 06:58N 52°02' E 001°09'0 0.0
2018-Jun-18 06:28N 52°02' E 001°09'0 0.0
2018-Jun-18 05:58N 52°02' E 001°09'0 0.0
2018-Jun-18 05:28N 52°02' E 001°09'0 0.0
2018-Jun-18 04:58N 52°02' E 001°09'0 0.0
2018-Jun-18 04:28N 52°02' E 001°09'0 0.0
2018-Jun-18 03:58N 52°02' E 001°09'0 0.0
2018-Jun-18 03:28N 52°02' E 001°09'0 0.0
2018-Jun-18 02:58N 52°02' E 001°09'0 0.0
2018-Jun-18 02:28N 52°02' E 001°09'0 0.2
2018-Jun-18 01:58N 52°02' E 001°09'0 0.5
2018-Jun-18 01:30N 52°02' E 001°09'2 4.6
2018-Jun-18 01:00N 52°00' E 001°12'3 6.4
2018-Jun-18 00:30N 51°59' E 001°17'4 7.1
2018-Jun-18 00:00N 51°56' E 001°19'5 9.4
2018-Jun-17 23:30N 51°56' E 001°26'4 8.0
2018-Jun-17 23:00N 51°57' E 001°33'1 2.0
2018-Jun-17 22:31N 51°58' E 001°33'0 0.0
2018-Jun-17 22:00N 51°58' E 001°33'0 0.4
2018-Jun-17 21:30N 51°58' E 001°33'0 0.2
2018-Jun-17 21:00N 51°58' E 001°33'0 0.0
2018-Jun-17 20:30N 51°58' E 001°33'0 0.0
2018-Jun-17 20:00N 51°58' E 001°33'1 1.8
2018-Jun-17 19:30N 51°58' E 001°34'4 8.5
2018-Jun-17 19:00N 51°54' E 001°34'3 6.5
2018-Jun-17 18:30N 51°52' E 001°38'4 7.3
2018-Jun-17 17:57N 51°51' E 001°45'4 7.9
2018-Jun-17 17:30N 51°48' E 001°48'511.0
2018-Jun-17 17:00N 51°43' E 001°48'510.4
2018-Jun-17 16:30N 51°38' E 001°50'5 9.8
2018-Jun-17 16:00N 51°33' E 001°53'5 9.5
2018-Jun-17 15:30N 51°29' E 001°56'4 8.8
2018-Jun-17 15:00N 51°25' E 002°00'5 9.4
2018-Jun-17 14:29N 51°21' E 001°58'511.0
2018-Jun-17 14:00N 51°16' E 001°53'510.9
2018-Jun-17 13:30N 51°12' E 001°48'510.3
2018-Jun-17 13:00N 51°08' E 001°43'5 9.6
2018-Jun-17 12:30N 51°04' E 001°38'4 8.4
2018-Jun-17 12:00N 51°01' E 001°34'4 8.3
2018-Jun-17 11:30N 50°58' E 001°30'4 7.2
2018-Jun-17 11:00N 50°54' E 001°28'3 6.5
2018-Jun-17 10:29N 50°51' E 001°28'3 6.2
2018-Jun-17 09:59N 50°48' E 001°26'3 6.3
2018-Jun-17 09:28N 50°45' E 001°24'58 7.6
2018-Jun-17 01:54N 50°18' E 000°04'4 9.2
2018-Jun-17 01:29N 50°17' W 000°02'9610.2
2018-Jun-16 16:03N 49°52' W 002°26'1 5.6
2018-Jun-16 15:51N 49°51' W 002°27'  
2018-Jun-13 02:07N 39°14' W 009°47'1 8.4
2018-Jun-13 01:58N 39°13' W 009°47'4 8.1
2018-Jun-13 01:30N 39°09' W 009°47'4 8.4
2018-Jun-13 01:00N 39°05' W 009°47'4 8.3
2018-Jun-13 00:30N 39°01' W 009°48'4 8.4
2018-Jun-13 00:00N 38°57' W 009°49'4 8.2
2018-Jun-12 23:30N 38°53' W 009°49'4 8.3
2018-Jun-12 22:59N 38°48' W 009°50'4 8.4
2018-Jun-12 22:30N 38°44' W 009°50'4 8.4
2018-Jun-12 22:00N 38°40' W 009°49'4 8.2
2018-Jun-12 21:29N 38°36' W 009°48'28 7.9
2018-Jun-12 18:00N 38°09' W 009°41'4 8.4
2018-Jun-12 17:30N 38°05' W 009°40'4 8.4
2018-Jun-12 17:00N 38°01' W 009°39'244 7.2
2018-Jun-11 07:12N 35°54' W 005°18'0 0.0
2018-Jun-11 07:00N 35°54' W 005°18'1 1.1
2018-Jun-11 06:30N 35°54' W 005°19'2 4.2
2018-Jun-11 06:00N 35°56' W 005°17'3 6.9
2018-Jun-11 05:30N 35°58' W 005°14'3 6.9
2018-Jun-11 05:00N 36°01' W 005°11'208 7.9
2018-Jun-10 02:40N 37°12' W 001°08'3 9.9
2018-Jun-10 02:19N 37°14' W 001°05'3 9.9
2018-Jun-10 02:00N 37°16' W 001°02'5 9.7
2018-Jun-10 01:30N 37°19' W 000°57'5 9.5
2018-Jun-10 01:00N 37°22' W 000°53'5 9.4
2018-Jun-10 00:30N 37°25' W 000°48'4 9.1
2018-Jun-10 00:00N 37°28' W 000°44'5 9.0
2018-Jun-09 23:29N 37°31' W 000°39'5 9.7
2018-Jun-09 23:00N 37°34' W 000°35'5 9.6
2018-Jun-09 22:30N 37°38' W 000°31'5 9.7
2018-Jun-09 22:00N 37°42' W 000°27'5 9.6
2018-Jun-09 21:26N 37°46' W 000°23'13 9.9
2018-Jun-09 20:06N 37°57' W 000°15'1 9.9
2018-Jun-09 20:00N 37°58' W 000°14'5 9.9
2018-Jun-09 19:30N 38°02' W 000°11'510.1
2018-Jun-09 19:00N 38°07' W 000°07'15 9.8
2018-Jun-09 17:26N 38°20' E 000°03'5 9.8
2018-Jun-09 16:58N 38°24' E 000°06'5 9.7
2018-Jun-09 16:29N 38°28' E 000°09'5 9.8
2018-Jun-09 15:57N 38°32' E 000°13'  
Track history (hours):
 
Tides and Currents Weather Stations Pressure Air Temp Water Temp Dewpoint Dewpoint Depression Visibility Wind Speed Wind Dir Waves Ship Positions

Wes Sonja

Last reported at 2018-Jun-18 08:58 UTC. Time now 2018-Jun-18 09:50 UTC.
Position N 52°02' E 001°09'.

Length 109 m; draft 7.3 m.

Type: Cargo ship. MMSI: 304013000.

Date/timePositionNaut miles runAvg speedWind from/ knotsBaromVisibWave heightAir tempDewpointWater temp
2018-Jun-18 08:58N 52°02' E 001°09'0 0.0
2018-Jun-18 08:28N 52°02' E 001°09'0 0.0
2018-Jun-18 07:58N 52°02' E 001°09'0 0.0
2018-Jun-18 07:28N 52°02' E 001°09'0 0.0
2018-Jun-18 06:58N 52°02' E 001°09'0 0.0
2018-Jun-18 06:28N 52°02' E 001°09'0 0.0
2018-Jun-18 05:58N 52°02' E 001°09'0 0.0
2018-Jun-18 05:28N 52°02' E 001°09'0 0.0
2018-Jun-18 04:58N 52°02' E 001°09'0 0.0
2018-Jun-18 04:28N 52°02' E 001°09'0 0.0
2018-Jun-18 03:58N 52°02' E 001°09'0 0.0
2018-Jun-18 03:28N 52°02' E 001°09'0 0.0
2018-Jun-18 02:58N 52°02' E 001°09'0 0.0
2018-Jun-18 02:28N 52°02' E 001°09'0 0.2
2018-Jun-18 01:58N 52°02' E 001°09'0 0.5
2018-Jun-18 01:30N 52°02' E 001°09'2 4.6
2018-Jun-18 01:00N 52°00' E 001°12'3 6.4
2018-Jun-18 00:30N 51°59' E 001°17'4 7.1
2018-Jun-18 00:00N 51°56' E 001°19'5 9.4
2018-Jun-17 23:30N 51°56' E 001°26'4 8.0
2018-Jun-17 23:00N 51°57' E 001°33'1 2.0
2018-Jun-17 22:31N 51°58' E 001°33'0 0.0
2018-Jun-17 22:00N 51°58' E 001°33'0 0.4
2018-Jun-17 21:30N 51°58' E 001°33'0 0.2
2018-Jun-17 21:00N 51°58' E 001°33'0 0.0
2018-Jun-17 20:30N 51°58' E 001°33'0 0.0
2018-Jun-17 20:00N 51°58' E 001°33'1 1.8
2018-Jun-17 19:30N 51°58' E 001°34'4 8.5
2018-Jun-17 19:00N 51°54' E 001°34'3 6.5
2018-Jun-17 18:30N 51°52' E 001°38'4 7.3
2018-Jun-17 17:57N 51°51' E 001°45'4 7.9
2018-Jun-17 17:30N 51°48' E 001°48'511.0
2018-Jun-17 17:00N 51°43' E 001°48'510.4
2018-Jun-17 16:30N 51°38' E 001°50'5 9.8
2018-Jun-17 16:00N 51°33' E 001°53'5 9.5
2018-Jun-17 15:30N 51°29' E 001°56'4 8.8
2018-Jun-17 15:00N 51°25' E 002°00'5 9.4
2018-Jun-17 14:29N 51°21' E 001°58'511.0
2018-Jun-17 14:00N 51°16' E 001°53'510.9
2018-Jun-17 13:30N 51°12' E 001°48'510.3
2018-Jun-17 13:00N 51°08' E 001°43'5 9.6
2018-Jun-17 12:30N 51°04' E 001°38'4 8.4
2018-Jun-17 12:00N 51°01' E 001°34'4 8.3
2018-Jun-17 11:30N 50°58' E 001°30'4 7.2
2018-Jun-17 11:00N 50°54' E 001°28'3 6.5
2018-Jun-17 10:29N 50°51' E 001°28'3 6.2
2018-Jun-17 09:59N 50°48' E 001°26'3 6.3
2018-Jun-17 09:28N 50°45' E 001°24'58 7.6
2018-Jun-17 01:54N 50°18' E 000°04'4 9.2
2018-Jun-17 01:29N 50°17' W 000°02'9610.2
2018-Jun-16 16:03N 49°52' W 002°26'1 5.6
2018-Jun-16 15:51N 49°51' W 002°27'  
2018-Jun-13 02:07N 39°14' W 009°47'1 8.4
2018-Jun-13 01:58N 39°13' W 009°47'4 8.1
2018-Jun-13 01:30N 39°09' W 009°47'4 8.4
2018-Jun-13 01:00N 39°05' W 009°47'4 8.3
2018-Jun-13 00:30N 39°01' W 009°48'4 8.4
2018-Jun-13 00:00N 38°57' W 009°49'4 8.2
2018-Jun-12 23:30N 38°53' W 009°49'4 8.3
2018-Jun-12 22:59N 38°48' W 009°50'4 8.4
2018-Jun-12 22:30N 38°44' W 009°50'4 8.4
2018-Jun-12 22:00N 38°40' W 009°49'4 8.2
2018-Jun-12 21:29N 38°36' W 009°48'28 7.9
2018-Jun-12 18:00N 38°09' W 009°41'4 8.4
2018-Jun-12 17:30N 38°05' W 009°40'4 8.4
2018-Jun-12 17:00N 38°01' W 009°39'244 7.2
2018-Jun-11 07:12N 35°54' W 005°18'0 0.0
2018-Jun-11 07:00N 35°54' W 005°18'1 1.1
2018-Jun-11 06:30N 35°54' W 005°19'2 4.2
2018-Jun-11 06:00N 35°56' W 005°17'3 6.9
2018-Jun-11 05:30N 35°58' W 005°14'3 6.9
2018-Jun-11 05:00N 36°01' W 005°11'208 7.9
2018-Jun-10 02:40N 37°12' W 001°08'3 9.9
2018-Jun-10 02:19N 37°14' W 001°05'3 9.9
2018-Jun-10 02:00N 37°16' W 001°02'5 9.7
2018-Jun-10 01:30N 37°19' W 000°57'5 9.5
2018-Jun-10 01:00N 37°22' W 000°53'5 9.4
2018-Jun-10 00:30N 37°25' W 000°48'4 9.1
2018-Jun-10 00:00N 37°28' W 000°44'5 9.0
2018-Jun-09 23:29N 37°31' W 000°39'5 9.7
2018-Jun-09 23:00N 37°34' W 000°35'5 9.6
2018-Jun-09 22:30N 37°38' W 000°31'5 9.7
2018-Jun-09 22:00N 37°42' W 000°27'5 9.6
2018-Jun-09 21:26N 37°46' W 000°23'13 9.9
2018-Jun-09 20:06N 37°57' W 000°15'1 9.9
2018-Jun-09 20:00N 37°58' W 000°14'5 9.9
2018-Jun-09 19:30N 38°02' W 000°11'510.1
2018-Jun-09 19:00N 38°07' W 000°07'15 9.8
2018-Jun-09 17:26N 38°20' E 000°03'5 9.8
2018-Jun-09 16:58N 38°24' E 000°06'5 9.7
2018-Jun-09 16:29N 38°28' E 000°09'5 9.8
2018-Jun-09 15:57N 38°32' E 000°13'  

Dump ship's entire track history